Startpagina
METAR-TAF:

METAR-TAF

Vliegvelden :

Tel Aviv / Ben Gurion, Israël

Luchthaven Ben-Gurion

breedte: 32-00N, lengte: 034-54E, hoogte: 40 m

Actueel weer

Dit bericht is 10 minuten geleden gemaakt, om 04:20 UTC
Wind 7 kt uit het zuiden
Temperatuur 14°C
Vochtigheid 82%
Druk 1019 hPa
Zicht 10 km of meer
Verspreide wolken op 3200 ft

METAR: LLBG 140420Z 18007KT 9999 SCT032 14/11 Q1019 NOSIG RMK SCT054

Tijdstip: 06:30 (04:30 UTC)

Verwachting

Dit bericht is 5 uur en het 27 minuten geleden gemaakt, om 23:03 UTC
Verwachting geldig van 14 om 00 UTC tot 14 om 24 UTC
Wind 4 kt uit het zuiden
Zicht 10 km of meer
Verspreide wolken op 3000 ft
Gebroken wolken op 5000 ft
Wijzigt naar
van 14 om 07 UTC tot 14 om 09 UTC
Wind 10 kt uit het westnoordwesten
Wijzigt naar
van 14 om 16 UTC tot 14 om 18 UTC
Wind 3 kt uit variabele richting

TAF: LLBG 132303Z 1400/1424 17004KT 9999 SCT030 BKN050 BECMG 1407/1409 30010KT BECMG 1416/1418 VRB03KT TX21/1412Z TN13/1404Z

Waarnemingen en weersverwachtingen van meer dan 4000 vliegvelden (METAR en TAF).

De beschikbare stations zijn de gele en rode punten op de kaart.

Ga met uw muis naar het station om de naam te zien.

Klik dan om waarnemingen en weersverwachtingen te zien.

kaart wijzigen: klik op de groene knoppen met een zwart kruis om in te zoomen, op de groene knop met een streepje om uit te zoomen of op de groene pijlen voor aangrenzende kaarten.


METAR-TAF: